Airfield :
LOGIN :

Register | Disclaimer

   EN    FR    IT 

 










Legend :    VFR   Marginal VFR   IFR   Intensive IFR   Very Intensive IFR
Visi :
Ceiling :
>= 8 km
>= 3000ft
5 to 8 km
1000 to 3000 ft
1500m to 5 km
500 to 1000 ft
800 to 1500m
200 to 500 ft
< 800m
< 200 ft
Symbols :   Thunderstorms  Fog  Heavy snow  Heavy precipitations  Wind > 20 kt
SIGMETs :     Misc.  Thunderstorms  Icing  Turbulence  Mountain Waves  Volcanic Ashes







- Airport Elevation : 183 ft
- IATA code : HAJ


EDDV - Hanover/Langenhagen Int.

CURRENT METAR :
  • 152020Z 03003KT 340V060 CAVOK 18/11 Q1016 NOSIG

EXPIRED METARs :
  • 151950Z VRB02KT CAVOK 20/11 Q1016 NOSIG
  • 151920Z 04004KT 350V060 CAVOK 21/11 Q1016 NOSIG
  • 151850Z 07006KT CAVOK 23/10 Q1016 NOSIG
  • 151820Z 07005KT 030V090 CAVOK 23/10 Q1016 NOSIG
  • 151750Z 04008KT CAVOK 24/10 Q1015 NOSIG

TAF TAF EDDV
Valid from the 15 at 18:00 until the 16 at 18:00 UTC


151700Z 1518/1618 03008KT CAVOK
BECMG 1518/1521 VRB03KT
BECMG 1608/1610 05005KT
No reported NOTAMs for that airfield.



MET'MAP, your aeronautical weather chart ! - Copyright ORBIFLY December 2007 - Disclaimer

ORBIFLY MET'MAP TEAM :

Programming & Development : Alexandra Zaïnal
Concept & Development : Baudouin d'Aumeries
Co-Development & Prog : Marc-Olivier Méhu
Technical & hardware support : Manuel Goepfert

Contact : metmap@orbifly.com




SOURCES & CREDITS :

   NOAA